»·PEaware :: N122JP KPDX-KSEA

N122JP :: KPDX-KSEA

FLIGHT INFORMATION

Flight Status: Arrived
Operator: Privately registered:
United States
More flights under this callsign
Pilot: Jens B. (19435)
Aircraft: Unknown
(P28U)
More flights by this aircraft type
Origin: KPDX Portland Intl
United States
Destination: KSEA Seattle-Tacoma Intl
United States
More flights between these airports :: More routes between these airports
Route: +PTLD1 BTG V495 SEA
File this flight plan on PilotEdge
Remarks:
Altitude:
(Current/Filed)
9,000ft
Speed:
(Current/Filed)
140kts
Departed: 15-Feb-20 01:28 PM
Arrived: 15-Feb-20 02:40 PM
Distance/Time
Traveled:
112nm/1:12
Distance/Time
To Go:
Arrived

Flight Plot

Page will automatically refresh every two minutes.

Flight plan parsing failed; only flown route is shown


Map Options




Map Legend


Flown Route
Filed Route
Departure Airport
Arrival Airport
Navaid (VOR, NDB)
Fix

Horizontal Profiles

Position Reports

Time Latitude Longitude Heading Altitude Ground
Speed
15-Feb-20 12:38 45.585003 -122.578294 247 25ft 0kts
15-Feb-20 12:39 45.585003 -122.578294 247 25ft 0kts
15-Feb-20 12:40 45.585003 -122.578294 247 25ft 0kts
15-Feb-20 12:41 45.585003 -122.578294 247 25ft 0kts
15-Feb-20 12:42 45.585003 -122.578294 247 25ft 0kts
15-Feb-20 12:43 45.585003 -122.578294 247 25ft 0kts
15-Feb-20 12:44 45.585003 -122.578294 247 25ft 0kts
15-Feb-20 12:45 45.585003 -122.578294 247 25ft 0kts
15-Feb-20 12:46 45.585003 -122.578294 247 25ft 0kts
15-Feb-20 12:47 45.585003 -122.578294 247 25ft 0kts
15-Feb-20 12:48 45.585003 -122.578294 247 25ft 0kts
15-Feb-20 12:49 45.585003 -122.578294 247 25ft 0kts
15-Feb-20 12:50 45.585003 -122.578294 247 25ft 0kts
15-Feb-20 12:51 45.585003 -122.578294 247 25ft 0kts
15-Feb-20 12:52 45.585003 -122.578294 247 25ft 0kts
15-Feb-20 12:53 45.585003 -122.578294 247 25ft 0kts
15-Feb-20 12:54 45.585003 -122.578294 247 25ft 0kts
15-Feb-20 12:55 45.585003 -122.578294 247 25ft 0kts
15-Feb-20 12:56 45.585003 -122.578294 247 25ft 0kts
15-Feb-20 12:57 45.585003 -122.578294 247 25ft 0kts
15-Feb-20 12:58 45.585003 -122.578294 247 25ft 0kts
15-Feb-20 12:59 45.585003 -122.578294 247 25ft 0kts
15-Feb-20 13:00 45.585003 -122.578294 247 25ft 0kts
15-Feb-20 13:01 45.585003 -122.578294 247 25ft 0kts
15-Feb-20 13:02 45.585003 -122.578294 247 25ft 0kts
15-Feb-20 13:03 45.585003 -122.578294 247 25ft 0kts
15-Feb-20 13:04 45.585003 -122.578294 247 25ft 0kts
15-Feb-20 13:05 45.585003 -122.578294 247 25ft 0kts
15-Feb-20 13:06 45.585003 -122.578294 247 25ft 0kts
15-Feb-20 13:07 45.585003 -122.578294 247 25ft 0kts
15-Feb-20 13:08 45.585003 -122.578294 247 25ft 0kts
15-Feb-20 13:09 45.585003 -122.578294 247 25ft 0kts
15-Feb-20 13:10 45.585003 -122.578294 247 25ft 0kts
15-Feb-20 13:11 45.585003 -122.578294 247 25ft 0kts
15-Feb-20 13:12 45.585003 -122.578294 247 25ft 0kts
15-Feb-20 13:13 45.585003 -122.578295 247 25ft 0kts
15-Feb-20 13:14 45.585003 -122.578294 247 25ft 0kts
15-Feb-20 13:15 45.585003 -122.578294 247 25ft 0kts
15-Feb-20 13:16 45.585003 -122.578294 247 25ft 0kts
15-Feb-20 13:17 45.585003 -122.578294 247 25ft 0kts
15-Feb-20 13:18 45.585003 -122.578294 247 25ft 0kts
15-Feb-20 13:19 45.585003 -122.578294 247 25ft 0kts
15-Feb-20 13:20 45.586217 -122.576813 294 27ft 9kts
15-Feb-20 13:21 45.588614 -122.582974 296 29ft 20kts
15-Feb-20 13:22 45.591477 -122.590318 300 31ft 21kts
15-Feb-20 13:23 45.594172 -122.597384 293 30ft 12kts
15-Feb-20 13:24 45.594488 -122.597522 77 30ft 0kts
15-Feb-20 13:25 45.594488 -122.597522 77 30ft 0kts
15-Feb-20 13:26 45.594488 -122.597522 77 30ft 0kts
15-Feb-20 13:27 45.591279 -122.586121 119 221ft 71kts
15-Feb-20 13:28 45.579908 -122.557650 122 1432ft 91kts
15-Feb-20 13:29 45.568809 -122.531468 130 3092ft 78kts
15-Feb-20 13:30 45.569061 -122.492288 21 3198ft 150kts
15-Feb-20 13:31 45.608476 -122.474655 15 3116ft 138kts
15-Feb-20 13:32 45.644163 -122.451488 26 3180ft 141kts
15-Feb-20 13:33 45.680064 -122.430212 21 3816ft 126kts
15-Feb-20 13:34 45.712363 -122.419829 309 5016ft 122kts
15-Feb-20 13:35 45.728960 -122.457663 285 6226ft 107kts
15-Feb-20 13:36 45.742053 -122.489661 279 7768ft 95kts
15-Feb-20 13:37 45.749647 -122.516581 239 9226ft 84kts
15-Feb-20 13:38 45.748792 -122.562617 266 9037ft 130kts
15-Feb-20 13:39 45.758108 -122.611710 296 9300ft 135kts
15-Feb-20 13:40 45.801171 -122.613957 5 8898ft 178kts
15-Feb-20 13:41 45.843701 -122.583779 44 8836ft 183kts
15-Feb-20 13:42 45.886854 -122.563113 348 8809ft 171kts
15-Feb-20 13:43 45.931750 -122.563543 343 9104ft 141kts
15-Feb-20 13:44 45.974260 -122.564403 343 9017ft 164kts
15-Feb-20 13:45 46.018537 -122.562301 4 9348ft 155kts
15-Feb-20 13:46 46.030228 -122.537364 119 7906ft 120kts
15-Feb-20 13:47 46.045066 -122.512148 351 9443ft 118kts
15-Feb-20 13:48 46.081592 -122.516734 353 9965ft 125kts
15-Feb-20 13:49 46.113590 -122.526730 343 8927ft 157kts
15-Feb-20 13:50 46.153141 -122.520358 6 8911ft 141kts
15-Feb-20 13:51 46.193096 -122.512711 5 8913ft 144kts
15-Feb-20 13:52 46.232917 -122.502516 13 8916ft 146kts
15-Feb-20 13:53 46.273705 -122.497306 5 8916ft 146kts
15-Feb-20 13:54 46.314354 -122.491470 7 8916ft 146kts
15-Feb-20 13:55 46.355001 -122.484725 7 8916ft 146kts
15-Feb-20 13:56 46.383196 -122.479809 7 8916ft 146kts
15-Feb-20 13:57 46.423718 -122.472628 8 8904ft 144kts
15-Feb-20 13:58 46.463936 -122.465412 8 8878ft 146kts
15-Feb-20 13:59 46.504399 -122.458107 8 8851ft 145kts
15-Feb-20 14:00 46.545179 -122.450720 8 8824ft 145kts
15-Feb-20 14:01 46.585602 -122.443395 8 8808ft 145kts
15-Feb-20 14:02 46.626097 -122.436026 8 8806ft 146kts
15-Feb-20 14:03 46.666576 -122.428671 8 8803ft 146kts
15-Feb-20 14:04 46.707093 -122.421283 7 8800ft 146kts
15-Feb-20 14:05 46.747726 -122.413891 7 8799ft 147kts
15-Feb-20 14:07 46.788676 -122.406405 8 8798ft 147kts
15-Feb-20 14:08 46.829594 -122.398919 8 8796ft 144kts
15-Feb-20 14:09 46.867770 -122.391995 7 8797ft 135kts
15-Feb-20 14:10 46.905073 -122.385198 8 8799ft 134kts
15-Feb-20 14:11 46.942439 -122.385078 356 8803ft 135kts
15-Feb-20 14:12 46.980140 -122.389977 356 8805ft 135kts
15-Feb-20 14:13 47.017953 -122.394106 357 8795ft 134kts
15-Feb-20 14:14 47.055493 -122.398144 357 8797ft 134kts
15-Feb-20 14:15 47.093020 -122.402111 357 8797ft 134kts
15-Feb-20 14:16 47.130724 -122.406020 357 8797ft 134kts
15-Feb-20 14:17 47.168319 -122.409841 357 8797ft 134kts
15-Feb-20 14:18 47.205864 -122.413571 357 8797ft 134kts
15-Feb-20 14:19 47.243513 -122.417127 357 8797ft 134kts
15-Feb-20 14:20 47.281136 -122.420467 357 8799ft 139kts
15-Feb-20 14:21 47.321996 -122.423594 357 8851ft 149kts
15-Feb-20 14:22 47.363679 -122.426436 358 8920ft 149kts
15-Feb-20 14:23 47.405467 -122.429098 358 8943ft 150kts
15-Feb-20 14:24 47.447475 -122.431671 358 8947ft 150kts
15-Feb-20 14:25 47.487683 -122.434181 358 8373ft 139kts
15-Feb-20 14:26 47.527358 -122.436871 358 7469ft 141kts
15-Feb-20 14:26 47.560012 -122.439227 358 6778ft 140kts
15-Feb-20 14:28 47.605378 -122.442683 358 5827ft 139kts
15-Feb-20 14:29 47.644023 -122.445755 358 4914ft 137kts
15-Feb-20 14:29 47.656830 -122.410883 93 3972ft 128kts
15-Feb-20 14:30 47.654369 -122.358562 88 3122ft 127kts
15-Feb-20 14:31 47.642338 -122.319666 148 2830ft 106kts
15-Feb-20 14:33 47.606575 -122.308942 185 2936ft 119kts
15-Feb-20 14:33 47.578986 -122.324142 218 2684ft 134kts
15-Feb-20 14:34 47.546422 -122.339379 179 2342ft 106kts
15-Feb-20 14:35 47.520093 -122.325032 153 1613ft 105kts
15-Feb-20 14:36 47.493992 -122.317644 176 1104ft 83kts
15-Feb-20 14:37 47.471047 -122.317891 178 608ft 81kts
15-Feb-20 14:38 47.454645 -122.317943 180 436ft 41kts
15-Feb-20 14:39 47.444369 -122.317963 173 436ft 21kts
15-Feb-20 14:40 47.439925 -122.314870 154 436ft 12kts
15-Feb-20 14:41 47.438312 -122.315474 1 436ft 0kts
15-Feb-20 14:42 47.438312 -122.315474 1 436ft 0kts

Navigation Log

Ident Type
Flight plan parsing failed, navigation log unavailable